createdAt,value
2022-12-24T00:08:02.223Z,79.3
2022-12-24T00:20:02.291Z,79.4
2022-12-24T00:32:02.110Z,80.5
2022-12-24T00:44:02.168Z,81.2
2022-12-24T00:56:02.200Z,81.2
2022-12-24T01:08:02.111Z,81.0
2022-12-24T01:20:02.110Z,81.3
2022-12-24T01:32:02.207Z,79.7
2022-12-24T01:44:02.098Z,79.9
2022-12-24T01:56:02.218Z,80.6
2022-12-24T02:08:02.108Z,81.3
2022-12-24T02:20:02.231Z,81.4
2022-12-24T02:32:02.122Z,81.9
2022-12-24T02:44:02.099Z,82.1
2022-12-24T02:56:02.224Z,82.9
2022-12-24T03:08:02.218Z,83.0
2022-12-24T03:20:02.096Z,82.6
2022-12-24T03:32:02.403Z,83.7
2022-12-24T03:44:02.106Z,83.7
2022-12-24T03:56:02.213Z,84.7
2022-12-24T04:08:02.106Z,85.0
2022-12-24T04:20:02.109Z,86.1
2022-12-24T04:32:02.327Z,88.3
2022-12-24T04:44:02.102Z,89.8
2022-12-24T04:56:02.272Z,90.3
2022-12-24T05:08:02.226Z,90.2
2022-12-24T05:20:02.477Z,90.1
2022-12-24T05:32:02.210Z,90.4
2022-12-24T05:44:02.103Z,91.5
2022-12-24T05:56:02.231Z,94.6
2022-12-24T06:08:02.123Z,96.0
2022-12-24T06:20:02.113Z,96.6
2022-12-24T06:32:02.342Z,96.4
2022-12-24T06:44:02.111Z,96.4
2022-12-24T06:56:02.202Z,96.1
2022-12-24T07:08:02.112Z,96.1
2022-12-24T07:20:02.138Z,96.1
2022-12-24T07:32:02.111Z,96.1
2022-12-24T07:44:02.113Z,95.6
2022-12-24T07:56:04.318Z,95.8
2022-12-24T08:08:02.107Z,95.9
2022-12-24T08:20:02.193Z,95.7
2022-12-24T08:32:02.177Z,95.1
2022-12-24T08:44:02.116Z,94.8
2022-12-24T08:56:02.230Z,94.3
2022-12-24T09:08:02.225Z,93.6
2022-12-24T09:20:02.212Z,92.4
2022-12-24T09:32:02.267Z,90.0
2022-12-24T09:44:02.104Z,90.1
2022-12-24T09:56:02.122Z,90.0
2022-12-24T10:08:02.124Z,89.5
2022-12-24T10:20:02.208Z,89.3
2022-12-24T10:32:02.226Z,88.6
2022-12-24T10:44:02.103Z,88.2
2022-12-24T10:56:02.200Z,88.2
2022-12-24T11:08:02.115Z,88.1
2022-12-24T11:20:02.116Z,88.1
2022-12-24T11:32:02.109Z,86.5
2022-12-24T11:44:02.104Z,86.2
2022-12-24T11:56:02.264Z,85.8
2022-12-24T12:08:02.228Z,86.3
2022-12-24T12:20:02.121Z,87.0
2022-12-24T12:32:02.249Z,85.1
2022-12-24T12:44:02.100Z,84.1
2022-12-24T12:56:02.231Z,84.2
2022-12-24T13:08:02.221Z,85.1
2022-12-24T13:20:02.600Z,84.2
2022-12-24T13:32:02.196Z,84.9
2022-12-24T13:44:02.106Z,84.5
2022-12-24T13:56:02.128Z,84.6
2022-12-24T14:08:02.107Z,85.8
2022-12-24T14:20:02.237Z,85.8
2022-12-24T14:32:02.134Z,85.4
2022-12-24T14:44:02.118Z,86.1
2022-12-24T14:56:02.221Z,87.3
2022-12-24T15:08:02.159Z,88.2
2022-12-24T15:20:02.315Z,88.2
2022-12-24T15:32:02.189Z,88.8
2022-12-24T15:44:02.111Z,89.6
2022-12-24T15:56:02.119Z,90.5
2022-12-24T16:08:02.116Z,91.4
2022-12-24T16:20:02.122Z,92.0
2022-12-24T16:32:02.128Z,92.4
2022-12-24T16:44:02.128Z,92.3
2022-12-24T16:56:02.135Z,93.3
2022-12-24T17:08:02.588Z,93.8
2022-12-24T17:20:02.216Z,94.5
2022-12-24T17:32:02.120Z,95.1
2022-12-24T17:44:02.216Z,95.4
2022-12-24T17:56:02.101Z,95.9
2022-12-24T18:08:02.112Z,96.2
2022-12-24T18:20:02.102Z,96.2
2022-12-24T18:32:02.110Z,96.0
2022-12-24T18:44:02.211Z,96.0
2022-12-24T18:56:02.188Z,95.8
2022-12-24T19:08:22.310Z,95.5
2022-12-24T19:20:02.230Z,95.5
2022-12-24T19:32:02.327Z,95.6
2022-12-24T19:44:02.222Z,95.6
2022-12-24T19:56:02.225Z,95.0
2022-12-24T20:08:02.221Z,95.1
2022-12-24T20:20:02.240Z,95.1
2022-12-24T20:32:02.261Z,95.2
2022-12-24T20:44:02.122Z,95.2
2022-12-24T20:56:02.111Z,95.0
2022-12-24T21:08:02.110Z,94.8
2022-12-24T21:20:02.159Z,94.7
2022-12-24T21:32:02.217Z,94.9
2022-12-24T21:44:02.220Z,95.0
2022-12-24T21:56:02.223Z,95.1
2022-12-24T22:08:02.239Z,95.2
2022-12-24T22:20:02.124Z,95.1
2022-12-24T22:32:02.226Z,94.9
2022-12-24T22:44:03.545Z,94.8
2022-12-24T22:56:02.282Z,94.5
2022-12-24T23:08:02.157Z,94.3
2022-12-24T23:20:02.118Z,93.9
2022-12-24T23:32:02.188Z,93.8
2022-12-24T23:44:02.225Z,93.4
2022-12-24T23:56:02.212Z,93.5
